If you wish to contribute or participate in the discussions about articles you are invited to join SKYbrary as a registered user

 Actions

Francisco Bangoy International Airport

From SKYbrary Wiki

RPMD
Airport
ICAO: RPMD – IATA: DVO
Summary
Name Francisco Bangoy International Airport
Region Asia and Pacific
Territory Philippines PH.gif
Location Catitipan, Mindanao
Serving Davao
Elevation 17.983 m
59 ft
59 ft17.983 m
Type large airport
Coordinates 7° 7' 31.88" N, 125° 38' 44.80" E
Runways
Designator Length Width Surface ROPS
5/23 3000 m9,842.52 ft
45 m147.638 ft
ASP yes/yes


METAR
Observation RPMD 191800Z 13005KT 090V160 9999 -RA FEW015CB SCT016 BKN290 27/27 Q1010 RMK A2983 CB NE
Station Davao Airport
Date/Time 19 May 2019 18:00:00
Wind direction 130°
Wind speed 05 kts
Lowest cloud amount few clouds
Temperature 27°C
Dew point 27°C
Humidity 100%
QNH 1010 hPa
Weather condition light rain

Maps

Terrain

Loading map...

Airport Layout

Loading map...


Accidents & Serious Incidents at or in vicinity of RPMD

None on SKYbrary